sensor_id;sensor_type;location;lat;lon;timestamp;temperature;humidity
28546;DHT22;15749;49.606;8.738;2023-02-28T00:00:34;9.30;63.20
28546;DHT22;15749;49.606;8.738;2023-02-28T00:03:04;9.30;63.20
28546;DHT22;15749;49.606;8.738;2023-02-28T00:05:33;9.30;63.00
28546;DHT22;15749;49.606;8.738;2023-02-28T00:08:03;9.40;62.90
28546;DHT22;15749;49.606;8.738;2023-02-28T00:10:32;9.30;62.80
28546;DHT22;15749;49.606;8.738;2023-02-28T00:13:04;9.30;62.90
28546;DHT22;15749;49.606;8.738;2023-02-28T00:15:35;9.30;62.90
28546;DHT22;15749;49.606;8.738;2023-02-28T00:18:04;9.20;62.70
28546;DHT22;15749;49.606;8.738;2023-02-28T00:20:33;9.20;62.80
28546;DHT22;15749;49.606;8.738;2023-02-28T00:23:02;9.20;62.90
28546;DHT22;15749;49.606;8.738;2023-02-28T00:25:31;9.20;63.00
28546;DHT22;15749;49.606;8.738;2023-02-28T00:28:00;9.20;63.10
28546;DHT22;15749;49.606;8.738;2023-02-28T00:30:30;9.20;63.10
28546;DHT22;15749;49.606;8.738;2023-02-28T00:33:00;9.20;63.10
28546;DHT22;15749;49.606;8.738;2023-02-28T00:35:29;9.20;62.90
28546;DHT22;15749;49.606;8.738;2023-02-28T00:37:58;9.10;62.80
28546;DHT22;15749;49.606;8.738;2023-02-28T00:40:27;9.10;62.80
28546;DHT22;15749;49.606;8.738;2023-02-28T00:43:00;9.10;62.80
28546;DHT22;15749;49.606;8.738;2023-02-28T00:45:29;9.10;62.80
28546;DHT22;15749;49.606;8.738;2023-02-28T00:47:59;9.10;62.80
28546;DHT22;15749;49.606;8.738;2023-02-28T00:50:28;9.00;62.70
28546;DHT22;15749;49.606;8.738;2023-02-28T00:52:57;9.10;62.60
28546;DHT22;15749;49.606;8.738;2023-02-28T00:55:27;9.00;63.50
28546;DHT22;15749;49.606;8.738;2023-02-28T00:57:56;9.00;63.80
28546;DHT22;15749;49.606;8.738;2023-02-28T01:00:28;9.00;64.00
28546;DHT22;15749;49.606;8.738;2023-02-28T01:02:57;9.00;63.20
28546;DHT22;15749;49.606;8.738;2023-02-28T01:05:27;9.00;63.30
28546;DHT22;15749;49.606;8.738;2023-02-28T01:07:59;9.00;63.30
28546;DHT22;15749;49.606;8.738;2023-02-28T01:10:28;9.00;63.40
28546;DHT22;15749;49.606;8.738;2023-02-28T01:12:59;8.90;63.30
28546;DHT22;15749;49.606;8.738;2023-02-28T01:15:28;8.90;63.20
28546;DHT22;15749;49.606;8.738;2023-02-28T01:17:57;8.90;63.30
28546;DHT22;15749;49.606;8.738;2023-02-28T01:20:27;8.90;63.50
28546;DHT22;15749;49.606;8.738;2023-02-28T01:22:56;8.90;63.20
28546;DHT22;15749;49.606;8.738;2023-02-28T01:25:25;8.90;63.10
28546;DHT22;15749;49.606;8.738;2023-02-28T01:27:55;8.90;63.20
28546;DHT22;15749;49.606;8.738;2023-02-28T01:30:27;8.80;63.20
28546;DHT22;15749;49.606;8.738;2023-02-28T01:32:56;8.80;63.30
28546;DHT22;15749;49.606;8.738;2023-02-28T01:35:27;8.80;63.30
28546;DHT22;15749;49.606;8.738;2023-02-28T01:37:56;8.80;63.50
28546;DHT22;15749;49.606;8.738;2023-02-28T01:40:38;8.80;63.50
28546;DHT22;15749;49.606;8.738;2023-02-28T01:43:19;8.80;63.40
28546;DHT22;15749;49.606;8.738;2023-02-28T01:45:51;8.70;63.30
28546;DHT22;15749;49.606;8.738;2023-02-28T01:48:22;8.70;63.20
28546;DHT22;15749;49.606;8.738;2023-02-28T01:50:58;8.70;63.40
28546;DHT22;15749;49.606;8.738;2023-02-28T01:53:32;8.70;63.50
28546;DHT22;15749;49.606;8.738;2023-02-28T01:56:07;8.70;63.60
28546;DHT22;15749;49.606;8.738;2023-02-28T01:58:38;8.70;63.60
28546;DHT22;15749;49.606;8.738;2023-02-28T02:01:07;8.60;63.40
28546;DHT22;15749;49.606;8.738;2023-02-28T02:03:36;8.60;64.30
28546;DHT22;15749;49.606;8.738;2023-02-28T02:06:07;8.60;63.70
28546;DHT22;15749;49.606;8.738;2023-02-28T02:08:36;8.60;64.10
28546;DHT22;15749;49.606;8.738;2023-02-28T02:11:08;8.60;64.10
28546;DHT22;15749;49.606;8.738;2023-02-28T02:13:53;8.60;64.10
28546;DHT22;15749;49.606;8.738;2023-02-28T02:16:41;8.60;64.10
28546;DHT22;15749;49.606;8.738;2023-02-28T02:26:30;8.60;63.80
28546;DHT22;15749;49.606;8.738;2023-02-28T02:29:40;8.60;63.80
28546;DHT22;15749;49.606;8.738;2023-02-28T02:32:34;8.60;64.00
28546;DHT22;15749;49.606;8.738;2023-02-28T02:35:43;8.50;63.90
28546;DHT22;15749;49.606;8.738;2023-02-28T02:38:23;8.50;63.70
28546;DHT22;15749;49.606;8.738;2023-02-28T02:41:08;8.50;63.70
28546;DHT22;15749;49.606;8.738;2023-02-28T02:43:46;8.50;63.90
28546;DHT22;15749;49.606;8.738;2023-02-28T02:46:20;8.50;64.10
28546;DHT22;15749;49.606;8.738;2023-02-28T02:48:56;8.50;64.10
28546;DHT22;15749;49.606;8.738;2023-02-28T02:51:31;8.50;64.10
28546;DHT22;15749;49.606;8.738;2023-02-28T02:54:05;8.40;64.50
28546;DHT22;15749;49.606;8.738;2023-02-28T02:56:41;8.50;64.40
28546;DHT22;15749;49.606;8.738;2023-02-28T02:59:15;8.50;65.10
28546;DHT22;15749;49.606;8.738;2023-02-28T03:01:51;8.40;64.30
28546;DHT22;15749;49.606;8.738;2023-02-28T03:04:24;8.40;64.40
28546;DHT22;15749;49.606;8.738;2023-02-28T03:07:00;8.40;65.00
28546;DHT22;15749;49.606;8.738;2023-02-28T03:09:32;8.40;64.20
28546;DHT22;15749;49.606;8.738;2023-02-28T03:12:03;8.40;64.20
28546;DHT22;15749;49.606;8.738;2023-02-28T03:14:51;8.40;63.90
28546;DHT22;15749;49.606;8.738;2023-02-28T03:17:43;8.40;65.00
28546;DHT22;15749;49.606;8.738;2023-02-28T03:20:39;8.30;64.30
28546;DHT22;15749;49.606;8.738;2023-02-28T03:23:17;8.30;64.30
28546;DHT22;15749;49.606;8.738;2023-02-28T03:25:56;8.30;64.50
28546;DHT22;15749;49.606;8.738;2023-02-28T03:28:32;8.30;64.60
28546;DHT22;15749;49.606;8.738;2023-02-28T03:31:12;8.30;64.50
28546;DHT22;15749;49.606;8.738;2023-02-28T03:33:48;8.30;64.30
28546;DHT22;15749;49.606;8.738;2023-02-28T03:36:25;8.30;64.40
28546;DHT22;15749;49.606;8.738;2023-02-28T03:38:58;8.30;64.50
28546;DHT22;15749;49.606;8.738;2023-02-28T03:41:36;8.30;64.50
28546;DHT22;15749;49.606;8.738;2023-02-28T03:44:11;8.30;64.50
28546;DHT22;15749;49.606;8.738;2023-02-28T03:46:48;8.30;64.60
28546;DHT22;15749;49.606;8.738;2023-02-28T03:49:25;8.20;64.60
28546;DHT22;15749;49.606;8.738;2023-02-28T03:51:58;8.30;64.70
28546;DHT22;15749;49.606;8.738;2023-02-28T03:54:32;8.20;64.60
28546;DHT22;15749;49.606;8.738;2023-02-28T03:57:07;8.20;64.60
28546;DHT22;15749;49.606;8.738;2023-02-28T03:59:43;8.20;64.50
28546;DHT22;15749;49.606;8.738;2023-02-28T04:02:13;8.30;65.00
28546;DHT22;15749;49.606;8.738;2023-02-28T04:04:42;8.20;64.70
28546;DHT22;15749;49.606;8.738;2023-02-28T04:07:16;8.30;65.20
28546;DHT22;15749;49.606;8.738;2023-02-28T04:09:50;8.20;64.30
28546;DHT22;15749;49.606;8.738;2023-02-28T04:12:20;8.20;64.30
28546;DHT22;15749;49.606;8.738;2023-02-28T04:14:52;8.20;64.50
28546;DHT22;15749;49.606;8.738;2023-02-28T04:17:22;8.20;64.60
28546;DHT22;15749;49.606;8.738;2023-02-28T04:19:51;8.10;64.50
28546;DHT22;15749;49.606;8.738;2023-02-28T04:22:21;8.10;64.50
28546;DHT22;15749;49.606;8.738;2023-02-28T04:24:54;8.10;64.50
28546;DHT22;15749;49.606;8.738;2023-02-28T04:27:23;8.10;64.50
28546;DHT22;15749;49.606;8.738;2023-02-28T04:29:52;8.10;64.50
28546;DHT22;15749;49.606;8.738;2023-02-28T04:32:21;8.10;65.10
28546;DHT22;15749;49.606;8.738;2023-02-28T04:34:52;8.10;64.60
28546;DHT22;15749;49.606;8.738;2023-02-28T04:37:21;8.10;65.20
28546;DHT22;15749;49.606;8.738;2023-02-28T04:39:56;8.10;64.50
28546;DHT22;15749;49.606;8.738;2023-02-28T04:42:25;8.10;64.50
28546;DHT22;15749;49.606;8.738;2023-02-28T04:44:54;8.10;64.50
28546;DHT22;15749;49.606;8.738;2023-02-28T04:47:23;8.00;64.60
28546;DHT22;15749;49.606;8.738;2023-02-28T04:49:52;8.00;64.50
28546;DHT22;15749;49.606;8.738;2023-02-28T04:52:22;8.00;64.60
28546;DHT22;15749;49.606;8.738;2023-02-28T04:54:51;8.00;64.50
28546;DHT22;15749;49.606;8.738;2023-02-28T04:57:21;8.00;64.40
28546;DHT22;15749;49.606;8.738;2023-02-28T04:59:50;8.00;64.50
28546;DHT22;15749;49.606;8.738;2023-02-28T05:02:19;8.00;65.40
28546;DHT22;15749;49.606;8.738;2023-02-28T05:04:48;8.00;64.80
28546;DHT22;15749;49.606;8.738;2023-02-28T05:07:17;8.00;64.90
28546;DHT22;15749;49.606;8.738;2023-02-28T05:09:46;8.00;64.90
28546;DHT22;15749;49.606;8.738;2023-02-28T05:12:15;8.00;64.80
28546;DHT22;15749;49.606;8.738;2023-02-28T05:14:46;8.00;64.90
28546;DHT22;15749;49.606;8.738;2023-02-28T05:17:15;8.00;64.80
28546;DHT22;15749;49.606;8.738;2023-02-28T05:19:44;8.00;64.80
28546;DHT22;15749;49.606;8.738;2023-02-28T05:22:14;7.90;64.70
28546;DHT22;15749;49.606;8.738;2023-02-28T05:24:44;7.90;65.00
28546;DHT22;15749;49.606;8.738;2023-02-28T05:27:13;7.90;65.00
28546;DHT22;15749;49.606;8.738;2023-02-28T05:29:42;7.90;65.20
28546;DHT22;15749;49.606;8.738;2023-02-28T05:32:15;8.00;65.10
28546;DHT22;15749;49.606;8.738;2023-02-28T05:34:44;7.90;65.10
28546;DHT22;15749;49.606;8.738;2023-02-28T05:37:14;7.90;65.10
28546;DHT22;15749;49.606;8.738;2023-02-28T05:39:44;7.90;64.90
28546;DHT22;15749;49.606;8.738;2023-02-28T05:42:13;7.90;64.70
28546;DHT22;15749;49.606;8.738;2023-02-28T05:44:42;7.90;65.10
28546;DHT22;15749;49.606;8.738;2023-02-28T05:47:11;7.90;65.00
28546;DHT22;15749;49.606;8.738;2023-02-28T05:49:44;7.90;65.80
28546;DHT22;15749;49.606;8.738;2023-02-28T05:52:15;7.90;65.00
28546;DHT22;15749;49.606;8.738;2023-02-28T05:54:47;7.90;65.10
28546;DHT22;15749;49.606;8.738;2023-02-28T05:57:16;7.90;65.10
28546;DHT22;15749;49.606;8.738;2023-02-28T05:59:54;7.80;65.00
28546;DHT22;15749;49.606;8.738;2023-02-28T06:02:23;7.80;64.80
28546;DHT22;15749;49.606;8.738;2023-02-28T06:04:53;7.80;64.80
28546;DHT22;15749;49.606;8.738;2023-02-28T06:07:22;7.80;65.10
28546;DHT22;15749;49.606;8.738;2023-02-28T06:09:51;7.80;65.10
28546;DHT22;15749;49.606;8.738;2023-02-28T06:12:20;7.80;66.00
28546;DHT22;15749;49.606;8.738;2023-02-28T06:14:49;7.80;65.50
28546;DHT22;15749;49.606;8.738;2023-02-28T06:17:18;7.80;65.50
28546;DHT22;15749;49.606;8.738;2023-02-28T06:19:47;7.80;65.40
28546;DHT22;15749;49.606;8.738;2023-02-28T06:22:18;7.80;65.40
28546;DHT22;15749;49.606;8.738;2023-02-28T06:24:50;7.80;65.40
28546;DHT22;15749;49.606;8.738;2023-02-28T06:27:20;7.80;65.50
28546;DHT22;15749;49.606;8.738;2023-02-28T06:29:53;7.80;65.40
28546;DHT22;15749;49.606;8.738;2023-02-28T06:32:23;7.80;65.40
28546;DHT22;15749;49.606;8.738;2023-02-28T06:34:52;7.80;66.00
28546;DHT22;15749;49.606;8.738;2023-02-28T06:37:22;7.80;65.30
28546;DHT22;15749;49.606;8.738;2023-02-28T06:39:54;7.80;65.40
28546;DHT22;15749;49.606;8.738;2023-02-28T06:42:24;7.80;65.40
28546;DHT22;15749;49.606;8.738;2023-02-28T06:44:56;7.70;65.90
28546;DHT22;15749;49.606;8.738;2023-02-28T06:47:25;7.70;65.20
28546;DHT22;15749;49.606;8.738;2023-02-28T06:49:54;7.70;65.40
28546;DHT22;15749;49.606;8.738;2023-02-28T06:52:25;7.70;65.70
28546;DHT22;15749;49.606;8.738;2023-02-28T06:54:54;7.70;65.70
28546;DHT22;15749;49.606;8.738;2023-02-28T06:57:28;7.70;65.60
28546;DHT22;15749;49.606;8.738;2023-02-28T06:59:59;7.80;65.90
28546;DHT22;15749;49.606;8.738;2023-02-28T07:02:28;7.80;66.10
28546;DHT22;15749;49.606;8.738;2023-02-28T07:04:59;7.80;66.70
28546;DHT22;15749;49.606;8.738;2023-02-28T07:07:29;7.80;65.90
28546;DHT22;15749;49.606;8.738;2023-02-28T07:09:58;7.80;67.00
28546;DHT22;15749;49.606;8.738;2023-02-28T07:12:27;7.80;66.30
28546;DHT22;15749;49.606;8.738;2023-02-28T07:14:56;7.80;66.00
28546;DHT22;15749;49.606;8.738;2023-02-28T07:17:25;7.80;66.10
28546;DHT22;15749;49.606;8.738;2023-02-28T07:19:57;7.80;66.30
28546;DHT22;15749;49.606;8.738;2023-02-28T07:22:26;7.90;66.40
28546;DHT22;15749;49.606;8.738;2023-02-28T07:24:57;7.90;66.40
28546;DHT22;15749;49.606;8.738;2023-02-28T07:27:28;7.90;66.30
28546;DHT22;15749;49.606;8.738;2023-02-28T07:29:57;8.00;66.40
28546;DHT22;15749;49.606;8.738;2023-02-28T07:32:29;8.00;67.00
28546;DHT22;15749;49.606;8.738;2023-02-28T07:34:58;8.00;66.40
28546;DHT22;15749;49.606;8.738;2023-02-28T07:37:27;8.10;66.70
28546;DHT22;15749;49.606;8.738;2023-02-28T07:40:00;8.10;66.60
28546;DHT22;15749;49.606;8.738;2023-02-28T07:42:32;8.10;66.70
28546;DHT22;15749;49.606;8.738;2023-02-28T07:45:04;8.20;66.80
28546;DHT22;15749;49.606;8.738;2023-02-28T07:47:34;8.20;66.70
28546;DHT22;15749;49.606;8.738;2023-02-28T07:50:04;8.30;66.80
28546;DHT22;15749;49.606;8.738;2023-02-28T07:52:35;8.30;67.00
28546;DHT22;15749;49.606;8.738;2023-02-28T07:55:35;8.40;67.00
28546;DHT22;15749;49.606;8.738;2023-02-28T08:01:45;8.50;67.20
28546;DHT22;15749;49.606;8.738;2023-02-28T08:04:14;8.60;67.60
28546;DHT22;15749;49.606;8.738;2023-02-28T08:06:43;8.60;66.80
28546;DHT22;15749;49.606;8.738;2023-02-28T08:09:12;8.70;67.00
28546;DHT22;15749;49.606;8.738;2023-02-28T08:11:43;8.70;67.20
28546;DHT22;15749;49.606;8.738;2023-02-28T08:14:12;8.80;67.20
28546;DHT22;15749;49.606;8.738;2023-02-28T08:16:41;8.90;67.30
28546;DHT22;15749;49.606;8.738;2023-02-28T08:19:11;9.00;67.20
28546;DHT22;15749;49.606;8.738;2023-02-28T08:21:40;9.00;67.20
28546;DHT22;15749;49.606;8.738;2023-02-28T08:24:09;9.10;67.20
28546;DHT22;15749;49.606;8.738;2023-02-28T08:26:38;9.20;68.00
28546;DHT22;15749;49.606;8.738;2023-02-28T08:29:11;9.30;67.20
28546;DHT22;15749;49.606;8.738;2023-02-28T08:31:40;9.40;67.20
28546;DHT22;15749;49.606;8.738;2023-02-28T08:34:11;9.40;67.40
28546;DHT22;15749;49.606;8.738;2023-02-28T08:36:42;9.50;67.30
28546;DHT22;15749;49.606;8.738;2023-02-28T08:39:12;9.60;67.20
28546;DHT22;15749;49.606;8.738;2023-02-28T08:41:42;9.80;67.60
28546;DHT22;15749;49.606;8.738;2023-02-28T08:44:15;9.80;67.50
28546;DHT22;15749;49.606;8.738;2023-02-28T08:46:44;9.90;67.90
28546;DHT22;15749;49.606;8.738;2023-02-28T08:49:13;10.00;67.70
28546;DHT22;15749;49.606;8.738;2023-02-28T08:51:43;10.10;67.40
28546;DHT22;15749;49.606;8.738;2023-02-28T08:54:15;10.20;67.20
28546;DHT22;15749;49.606;8.738;2023-02-28T08:56:46;10.30;67.80
28546;DHT22;15749;49.606;8.738;2023-02-28T08:59:17;10.40;66.70
28546;DHT22;15749;49.606;8.738;2023-02-28T09:01:46;10.50;66.50
28546;DHT22;15749;49.606;8.738;2023-02-28T09:04:18;10.60;67.00
28546;DHT22;15749;49.606;8.738;2023-02-28T09:06:50;10.60;67.10
28546;DHT22;15749;49.606;8.738;2023-02-28T09:09:20;10.70;67.10
28546;DHT22;15749;49.606;8.738;2023-02-28T09:11:49;10.80;66.80
28546;DHT22;15749;49.606;8.738;2023-02-28T09:14:19;10.90;67.10
28546;DHT22;15749;49.606;8.738;2023-02-28T09:16:48;11.00;67.00
28546;DHT22;15749;49.606;8.738;2023-02-28T09:19:18;11.10;67.10
28546;DHT22;15749;49.606;8.738;2023-02-28T09:21:47;11.10;67.60
28546;DHT22;15749;49.606;8.738;2023-02-28T09:24:15;11.20;66.40
28546;DHT22;15749;49.606;8.738;2023-02-28T09:26:45;11.30;66.30
28546;DHT22;15749;49.606;8.738;2023-02-28T09:29:33;11.40;66.40
28546;DHT22;15749;49.606;8.738;2023-02-28T09:32:03;11.40;66.00
28546;DHT22;15749;49.606;8.738;2023-02-28T09:34:36;11.50;66.00
28546;DHT22;15749;49.606;8.738;2023-02-28T09:37:06;11.60;66.00
28546;DHT22;15749;49.606;8.738;2023-02-28T09:39:35;11.70;65.40
28546;DHT22;15749;49.606;8.738;2023-02-28T09:42:05;11.70;64.80
28546;DHT22;15749;49.606;8.738;2023-02-28T09:44:39;11.80;65.30
28546;DHT22;15749;49.606;8.738;2023-02-28T09:47:14;11.90;64.70
28546;DHT22;15749;49.606;8.738;2023-02-28T09:49:48;11.90;65.10
28546;DHT22;15749;49.606;8.738;2023-02-28T09:52:19;12.00;65.30
28546;DHT22;15749;49.606;8.738;2023-02-28T09:54:49;12.10;65.30
28546;DHT22;15749;49.606;8.738;2023-02-28T09:57:22;12.10;65.10
28546;DHT22;15749;49.606;8.738;2023-02-28T10:00:05;12.30;64.40
28546;DHT22;15749;49.606;8.738;2023-02-28T10:02:49;12.40;63.50
28546;DHT22;15749;49.606;8.738;2023-02-28T10:05:24;12.40;64.40
28546;DHT22;15749;49.606;8.738;2023-02-28T10:08:02;12.50;64.10
28546;DHT22;15749;49.606;8.738;2023-02-28T10:10:39;12.50;63.80
28546;DHT22;15749;49.606;8.738;2023-02-28T10:13:17;12.60;63.70
28546;DHT22;15749;49.606;8.738;2023-02-28T10:15:55;12.70;63.10
28546;DHT22;15749;49.606;8.738;2023-02-28T10:18:30;12.80;63.30
28546;DHT22;15749;49.606;8.738;2023-02-28T10:21:08;12.90;63.90
28546;DHT22;15749;49.606;8.738;2023-02-28T10:23:46;12.90;63.80
28546;DHT22;15749;49.606;8.738;2023-02-28T10:26:18;13.00;63.30
28546;DHT22;15749;49.606;8.738;2023-02-28T10:28:47;13.10;64.20
28546;DHT22;15749;49.606;8.738;2023-02-28T10:31:20;13.20;63.10
28546;DHT22;15749;49.606;8.738;2023-02-28T10:33:52;13.30;63.10
28546;DHT22;15749;49.606;8.738;2023-02-28T10:36:22;13.40;63.00
28546;DHT22;15749;49.606;8.738;2023-02-28T10:38:51;13.40;62.70
28546;DHT22;15749;49.606;8.738;2023-02-28T10:41:28;13.40;62.10
28546;DHT22;15749;49.606;8.738;2023-02-28T10:44:19;13.40;60.10
28546;DHT22;15749;49.606;8.738;2023-02-28T10:46:54;13.50;60.40
28546;DHT22;15749;49.606;8.738;2023-02-28T10:49:26;13.50;61.10
28546;DHT22;15749;49.606;8.738;2023-02-28T10:51:59;13.50;60.20
28546;DHT22;15749;49.606;8.738;2023-02-28T10:54:31;13.40;59.90
28546;DHT22;15749;49.606;8.738;2023-02-28T10:57:08;13.30;60.50
28546;DHT22;15749;49.606;8.738;2023-02-28T10:59:41;13.30;60.30
28546;DHT22;15749;49.606;8.738;2023-02-28T11:02:32;13.30;60.50
28546;DHT22;15749;49.606;8.738;2023-02-28T11:05:23;13.20;60.10
28546;DHT22;15749;49.606;8.738;2023-02-28T11:07:56;13.20;59.30
28546;DHT22;15749;49.606;8.738;2023-02-28T11:10:30;13.10;59.70
28546;DHT22;15749;49.606;8.738;2023-02-28T11:13:02;13.10;60.30
28546;DHT22;15749;49.606;8.738;2023-02-28T11:15:33;13.10;61.70
28546;DHT22;15749;49.606;8.738;2023-02-28T11:18:20;13.00;61.80
28546;DHT22;15749;49.606;8.738;2023-02-28T11:20:53;13.00;59.70
28546;DHT22;15749;49.606;8.738;2023-02-28T11:23:30;13.00;61.00
28546;DHT22;15749;49.606;8.738;2023-02-28T11:26:04;13.00;61.10
28546;DHT22;15749;49.606;8.738;2023-02-28T11:28:38;13.10;61.00
28546;DHT22;15749;49.606;8.738;2023-02-28T11:31:18;13.10;60.60
28546;DHT22;15749;49.606;8.738;2023-02-28T11:33:52;13.10;60.00
28546;DHT22;15749;49.606;8.738;2023-02-28T11:36:24;13.20;60.30
28546;DHT22;15749;49.606;8.738;2023-02-28T11:38:56;13.30;60.90
28546;DHT22;15749;49.606;8.738;2023-02-28T11:41:40;13.30;60.00
28546;DHT22;15749;49.606;8.738;2023-02-28T11:44:27;13.40;59.10
28546;DHT22;15749;49.606;8.738;2023-02-28T11:47:07;13.40;60.30
28546;DHT22;15749;49.606;8.738;2023-02-28T11:49:47;13.50;60.70
28546;DHT22;15749;49.606;8.738;2023-02-28T11:52:29;13.50;59.50
28546;DHT22;15749;49.606;8.738;2023-02-28T11:55:14;13.60;60.40
28546;DHT22;15749;49.606;8.738;2023-02-28T11:57:56;13.70;60.00
28546;DHT22;15749;49.606;8.738;2023-02-28T12:00:40;13.80;60.90
28546;DHT22;15749;49.606;8.738;2023-02-28T12:03:26;13.90;60.10
28546;DHT22;15749;49.606;8.738;2023-02-28T12:06:06;14.00;61.00
28546;DHT22;15749;49.606;8.738;2023-02-28T12:09:02;14.10;60.60
28546;DHT22;15749;49.606;8.738;2023-02-28T12:11:51;14.20;58.70
28546;DHT22;15749;49.606;8.738;2023-02-28T12:17:34;14.40;60.00
28546;DHT22;15749;49.606;8.738;2023-02-28T12:20:17;14.50;59.60
28546;DHT22;15749;49.606;8.738;2023-02-28T12:23:01;14.60;58.30
28546;DHT22;15749;49.606;8.738;2023-02-28T12:25:52;14.60;58.50
28546;DHT22;15749;49.606;8.738;2023-02-28T12:28:35;14.70;58.50
28546;DHT22;15749;49.606;8.738;2023-02-28T12:31:11;14.80;58.90
28546;DHT22;15749;49.606;8.738;2023-02-28T12:33:48;14.80;58.80
28546;DHT22;15749;49.606;8.738;2023-02-28T12:36:23;14.80;58.50
28546;DHT22;15749;49.606;8.738;2023-02-28T12:38:58;14.80;58.70
28546;DHT22;15749;49.606;8.738;2023-02-28T12:41:33;14.90;58.00
28546;DHT22;15749;49.606;8.738;2023-02-28T12:44:09;14.90;58.00
28546;DHT22;15749;49.606;8.738;2023-02-28T12:46:43;14.80;57.60
28546;DHT22;15749;49.606;8.738;2023-02-28T12:49:16;14.80;57.10
28546;DHT22;15749;49.606;8.738;2023-02-28T12:51:47;14.70;55.80
28546;DHT22;15749;49.606;8.738;2023-02-28T12:54:24;14.70;56.30
28546;DHT22;15749;49.606;8.738;2023-02-28T12:57:02;14.60;56.60
28546;DHT22;15749;49.606;8.738;2023-02-28T12:59:39;14.50;56.30
28546;DHT22;15749;49.606;8.738;2023-02-28T13:05:46;14.30;56.20
28546;DHT22;15749;49.606;8.738;2023-02-28T13:09:02;14.30;56.50
28546;DHT22;15749;49.606;8.738;2023-02-28T13:11:43;14.20;56.60
28546;DHT22;15749;49.606;8.738;2023-02-28T13:14:23;14.10;56.90
28546;DHT22;15749;49.606;8.738;2023-02-28T13:17:01;14.00;56.90
28546;DHT22;15749;49.606;8.738;2023-02-28T13:19:33;13.90;56.60
28546;DHT22;15749;49.606;8.738;2023-02-28T13:22:03;13.80;57.20
28546;DHT22;15749;49.606;8.738;2023-02-28T13:24:42;13.80;57.40
28546;DHT22;15749;49.606;8.738;2023-02-28T13:27:34;13.70;57.70
28546;DHT22;15749;49.606;8.738;2023-02-28T13:33:33;13.50;57.30
28546;DHT22;15749;49.606;8.738;2023-02-28T13:36:25;13.50;57.10
28546;DHT22;15749;49.606;8.738;2023-02-28T13:38:58;13.40;56.90
28546;DHT22;15749;49.606;8.738;2023-02-28T13:41:46;13.40;57.20
28546;DHT22;15749;49.606;8.738;2023-02-28T13:44:19;13.30;57.00
28546;DHT22;15749;49.606;8.738;2023-02-28T13:47:22;13.20;57.60
28546;DHT22;15749;49.606;8.738;2023-02-28T13:49:53;13.20;57.10
28546;DHT22;15749;49.606;8.738;2023-02-28T13:52:24;13.10;57.80
28546;DHT22;15749;49.606;8.738;2023-02-28T13:55:13;13.10;57.10
28546;DHT22;15749;49.606;8.738;2023-02-28T13:58:03;13.00;56.60
28546;DHT22;15749;49.606;8.738;2023-02-28T14:00:56;13.00;56.70
28546;DHT22;15749;49.606;8.738;2023-02-28T14:06:32;12.90;57.10
28546;DHT22;15749;49.606;8.738;2023-02-28T14:09:15;12.80;57.00
28546;DHT22;15749;49.606;8.738;2023-02-28T14:11:50;12.80;57.20
28546;DHT22;15749;49.606;8.738;2023-02-28T14:14:55;12.70;56.90
28546;DHT22;15749;49.606;8.738;2023-02-28T14:17:27;12.70;56.50
28546;DHT22;15749;49.606;8.738;2023-02-28T14:19:57;12.60;57.70
28546;DHT22;15749;49.606;8.738;2023-02-28T14:22:43;12.60;57.10
28546;DHT22;15749;49.606;8.738;2023-02-28T14:25:23;12.50;57.30
28546;DHT22;15749;49.606;8.738;2023-02-28T14:28:12;12.50;57.30
28546;DHT22;15749;49.606;8.738;2023-02-28T14:30:56;12.40;57.40
28546;DHT22;15749;49.606;8.738;2023-02-28T14:33:59;12.40;57.50
28546;DHT22;15749;49.606;8.738;2023-02-28T14:36:37;12.40;58.00
28546;DHT22;15749;49.606;8.738;2023-02-28T14:39:12;12.30;57.80
28546;DHT22;15749;49.606;8.738;2023-02-28T14:41:46;12.30;58.10
28546;DHT22;15749;49.606;8.738;2023-02-28T14:44:17;12.30;58.10
28546;DHT22;15749;49.606;8.738;2023-02-28T14:46:50;12.30;58.10
28546;DHT22;15749;49.606;8.738;2023-02-28T14:49:23;12.20;57.80
28546;DHT22;15749;49.606;8.738;2023-02-28T14:52:10;12.20;57.60
28546;DHT22;15749;49.606;8.738;2023-02-28T14:54:44;12.10;57.30
28546;DHT22;15749;49.606;8.738;2023-02-28T14:57:22;12.10;57.40
28546;DHT22;15749;49.606;8.738;2023-02-28T15:00:00;12.00;57.50
28546;DHT22;15749;49.606;8.738;2023-02-28T15:02:34;12.10;57.60
28546;DHT22;15749;49.606;8.738;2023-02-28T15:05:22;11.90;58.50
28546;DHT22;15749;49.606;8.738;2023-02-28T15:08:09;11.90;57.40
28546;DHT22;15749;49.606;8.738;2023-02-28T15:10:42;11.80;58.50
28546;DHT22;15749;49.606;8.738;2023-02-28T15:13:14;11.80;58.10
28546;DHT22;15749;49.606;8.738;2023-02-28T15:15:48;11.80;58.00
28546;DHT22;15749;49.606;8.738;2023-02-28T15:18:43;11.80;58.10
28546;DHT22;15749;49.606;8.738;2023-02-28T15:21:18;11.70;58.10
28546;DHT22;15749;49.606;8.738;2023-02-28T15:23:52;11.70;58.30
28546;DHT22;15749;49.606;8.738;2023-02-28T15:26:28;11.70;58.70
28546;DHT22;15749;49.606;8.738;2023-02-28T15:29:01;11.70;59.10
28546;DHT22;15749;49.606;8.738;2023-02-28T15:31:32;11.70;59.20
28546;DHT22;15749;49.606;8.738;2023-02-28T15:34:26;11.70;58.70
28546;DHT22;15749;49.606;8.738;2023-02-28T15:37:26;11.70;59.60
28546;DHT22;15749;49.606;8.738;2023-02-28T15:40:05;11.70;58.70
28546;DHT22;15749;49.606;8.738;2023-02-28T15:42:39;11.70;58.80
28546;DHT22;15749;49.606;8.738;2023-02-28T15:45:28;11.70;58.70
28546;DHT22;15749;49.606;8.738;2023-02-28T15:48:12;11.70;59.00
28546;DHT22;15749;49.606;8.738;2023-02-28T15:50:51;11.70;58.70
28546;DHT22;15749;49.606;8.738;2023-02-28T15:53:24;11.60;58.40
28546;DHT22;15749;49.606;8.738;2023-02-28T15:56:00;11.60;58.40
28546;DHT22;15749;49.606;8.738;2023-02-28T15:58:31;11.60;58.70
28546;DHT22;15749;49.606;8.738;2023-02-28T16:01:17;11.50;58.40
28546;DHT22;15749;49.606;8.738;2023-02-28T16:03:52;11.50;58.70
28546;DHT22;15749;49.606;8.738;2023-02-28T16:06:30;11.50;58.60
28546;DHT22;15749;49.606;8.738;2023-02-28T16:09:04;11.50;58.60
28546;DHT22;15749;49.606;8.738;2023-02-28T16:11:39;11.50;58.90
28546;DHT22;15749;49.606;8.738;2023-02-28T16:14:16;11.50;59.00
28546;DHT22;15749;49.606;8.738;2023-02-28T16:16:49;11.50;59.00
28546;DHT22;15749;49.606;8.738;2023-02-28T16:19:20;11.50;59.00
28546;DHT22;15749;49.606;8.738;2023-02-28T16:21:50;11.50;59.10
28546;DHT22;15749;49.606;8.738;2023-02-28T16:24:20;11.50;59.20
28546;DHT22;15749;49.606;8.738;2023-02-28T16:26:51;11.50;59.10
28546;DHT22;15749;49.606;8.738;2023-02-28T16:29:24;11.50;59.10
28546;DHT22;15749;49.606;8.738;2023-02-28T16:31:55;11.50;59.20
28546;DHT22;15749;49.606;8.738;2023-02-28T16:34:25;11.50;59.20
28546;DHT22;15749;49.606;8.738;2023-02-28T16:36:54;11.50;59.10
28546;DHT22;15749;49.606;8.738;2023-02-28T16:39:25;11.50;59.20
28546;DHT22;15749;49.606;8.738;2023-02-28T16:41:54;11.60;59.60
28546;DHT22;15749;49.606;8.738;2023-02-28T16:44:27;11.50;59.60
28546;DHT22;15749;49.606;8.738;2023-02-28T16:46:59;11.50;59.80
28546;DHT22;15749;49.606;8.738;2023-02-28T16:49:30;11.50;59.70